sensor_id;sensor_type;location;lat;lon;timestamp;P1;durP1;ratioP1;P2;durP2;ratioP2
13564;SDS011;6854;48.096;11.278;2024-03-02T00:00:21;21.67;;;13.63;;
13564;SDS011;6854;48.096;11.278;2024-03-02T00:02:50;24.77;;;13.27;;
13564;SDS011;6854;48.096;11.278;2024-03-02T00:05:18;26.17;;;14.13;;
13564;SDS011;6854;48.096;11.278;2024-03-02T00:07:44;26.70;;;14.80;;
13564;SDS011;6854;48.096;11.278;2024-03-02T00:10:14;30.57;;;15.57;;
13564;SDS011;6854;48.096;11.278;2024-03-02T00:12:45;27.33;;;14.40;;
13564;SDS011;6854;48.096;11.278;2024-03-02T00:17:45;38.40;;;18.60;;
13564;SDS011;6854;48.096;11.278;2024-03-02T00:20:11;35.17;;;19.60;;
13564;SDS011;6854;48.096;11.278;2024-03-02T00:22:45;36.07;;;18.27;;
13564;SDS011;6854;48.096;11.278;2024-03-02T00:25:12;34.50;;;18.50;;
13564;SDS011;6854;48.096;11.278;2024-03-02T00:27:47;35.90;;;20.60;;
13564;SDS011;6854;48.096;11.278;2024-03-02T00:30:32;33.57;;;19.27;;
13564;SDS011;6854;48.096;11.278;2024-03-02T00:33:02;35.60;;;18.80;;
13564;SDS011;6854;48.096;11.278;2024-03-02T00:35:33;36.27;;;18.60;;
13564;SDS011;6854;48.096;11.278;2024-03-02T00:38:03;36.93;;;20.80;;
13564;SDS011;6854;48.096;11.278;2024-03-02T00:40:30;41.67;;;21.63;;
13564;SDS011;6854;48.096;11.278;2024-03-02T00:42:56;42.33;;;20.17;;
13564;SDS011;6854;48.096;11.278;2024-03-02T00:45:22;39.23;;;20.03;;
13564;SDS011;6854;48.096;11.278;2024-03-02T00:47:49;37.20;;;20.43;;
13564;SDS011;6854;48.096;11.278;2024-03-02T00:50:15;42.50;;;21.20;;
13564;SDS011;6854;48.096;11.278;2024-03-02T00:52:42;45.87;;;21.13;;
13564;SDS011;6854;48.096;11.278;2024-03-02T00:55:08;45.93;;;22.40;;
13564;SDS011;6854;48.096;11.278;2024-03-02T00:57:34;42.83;;;23.20;;
13564;SDS011;6854;48.096;11.278;2024-03-02T01:00:01;44.30;;;21.90;;
13564;SDS011;6854;48.096;11.278;2024-03-02T01:02:35;43.63;;;22.40;;
13564;SDS011;6854;48.096;11.278;2024-03-02T01:05:01;44.70;;;21.70;;
13564;SDS011;6854;48.096;11.278;2024-03-02T01:07:27;44.80;;;20.73;;
13564;SDS011;6854;48.096;11.278;2024-03-02T01:09:53;47.00;;;23.87;;
13564;SDS011;6854;48.096;11.278;2024-03-02T01:12:19;49.43;;;24.10;;
13564;SDS011;6854;48.096;11.278;2024-03-02T01:14:47;46.60;;;22.60;;
13564;SDS011;6854;48.096;11.278;2024-03-02T01:17:13;46.50;;;21.60;;
13564;SDS011;6854;48.096;11.278;2024-03-02T01:19:42;43.87;;;23.17;;
13564;SDS011;6854;48.096;11.278;2024-03-02T01:22:11;41.33;;;22.57;;
13564;SDS011;6854;48.096;11.278;2024-03-02T01:24:37;45.07;;;22.13;;
13564;SDS011;6854;48.096;11.278;2024-03-02T01:27:06;41.43;;;21.80;;
13564;SDS011;6854;48.096;11.278;2024-03-02T01:29:32;44.33;;;23.20;;
13564;SDS011;6854;48.096;11.278;2024-03-02T01:31:58;44.70;;;22.67;;
13564;SDS011;6854;48.096;11.278;2024-03-02T01:34:25;42.73;;;22.83;;
13564;SDS011;6854;48.096;11.278;2024-03-02T01:36:51;50.93;;;23.07;;
13564;SDS011;6854;48.096;11.278;2024-03-02T01:39:17;53.43;;;24.67;;
13564;SDS011;6854;48.096;11.278;2024-03-02T01:41:43;48.07;;;23.07;;
13564;SDS011;6854;48.096;11.278;2024-03-02T07:51:37;80.77;;;28.67;;
13564;SDS011;6854;48.096;11.278;2024-03-02T07:58:03;84.07;;;28.27;;
13564;SDS011;6854;48.096;11.278;2024-03-02T08:01:14;63.13;;;25.87;;
13564;SDS011;6854;48.096;11.278;2024-03-02T08:04:12;66.80;;;25.47;;
13564;SDS011;6854;48.096;11.278;2024-03-02T08:06:39;74.53;;;27.87;;
13564;SDS011;6854;48.096;11.278;2024-03-02T08:12:46;44.77;;;18.27;;
13564;SDS011;6854;48.096;11.278;2024-03-02T08:15:19;64.83;;;23.77;;
13564;SDS011;6854;48.096;11.278;2024-03-02T08:17:57;67.03;;;25.93;;
13564;SDS011;6854;48.096;11.278;2024-03-02T08:30:28;60.70;;;26.10;;
13564;SDS011;6854;48.096;11.278;2024-03-02T08:36:54;64.50;;;27.20;;
13564;SDS011;6854;48.096;11.278;2024-03-02T08:43:02;67.00;;;29.60;;
13564;SDS011;6854;48.096;11.278;2024-03-02T08:52:21;56.93;;;27.40;;
13564;SDS011;6854;48.096;11.278;2024-03-02T10:39:52;12.77;;;8.57;;
13564;SDS011;6854;48.096;11.278;2024-03-02T11:44:04;10.67;;;6.57;;
13564;SDS011;6854;48.096;11.278;2024-03-02T11:46:30;9.07;;;6.53;;
13564;SDS011;6854;48.096;11.278;2024-03-02T19:03:00;65.17;;;25.70;;
13564;SDS011;6854;48.096;11.278;2024-03-02T19:12:06;65.13;;;27.03;;
13564;SDS011;6854;48.096;11.278;2024-03-02T19:18:15;61.47;;;29.27;;
13564;SDS011;6854;48.096;11.278;2024-03-02T19:21:27;65.00;;;28.83;;
13564;SDS011;6854;48.096;11.278;2024-03-02T19:27:34;94.57;;;36.20;;
13564;SDS011;6854;48.096;11.278;2024-03-02T19:30:09;99.03;;;35.40;;
13564;SDS011;6854;48.096;11.278;2024-03-02T19:36:04;92.70;;;33.67;;
13564;SDS011;6854;48.096;11.278;2024-03-02T19:38:48;83.03;;;32.70;;
13564;SDS011;6854;48.096;11.278;2024-03-02T19:41:42;80.97;;;32.20;;
13564;SDS011;6854;48.096;11.278;2024-03-02T19:47:56;85.03;;;32.73;;
13564;SDS011;6854;48.096;11.278;2024-03-02T19:50:28;83.30;;;33.77;;
13564;SDS011;6854;48.096;11.278;2024-03-02T19:52:57;102.57;;;35.67;;
13564;SDS011;6854;48.096;11.278;2024-03-02T19:55:30;92.63;;;35.87;;
13564;SDS011;6854;48.096;11.278;2024-03-02T19:58:04;94.70;;;35.80;;
13564;SDS011;6854;48.096;11.278;2024-03-02T20:00:34;94.73;;;36.30;;
13564;SDS011;6854;48.096;11.278;2024-03-02T20:06:28;94.27;;;36.77;;
13564;SDS011;6854;48.096;11.278;2024-03-02T20:09:03;103.30;;;38.70;;
13564;SDS011;6854;48.096;11.278;2024-03-02T20:14:57;111.13;;;36.03;;
13564;SDS011;6854;48.096;11.278;2024-03-02T20:24:44;97.43;;;33.33;;
13564;SDS011;6854;48.096;11.278;2024-03-02T20:27:12;101.53;;;35.47;;
13564;SDS011;6854;48.096;11.278;2024-03-02T20:30:05;115.33;;;34.97;;
13564;SDS011;6854;48.096;11.278;2024-03-02T20:33:44;102.27;;;35.73;;
13564;SDS011;6854;48.096;11.278;2024-03-02T20:37:15;97.17;;;34.37;;
13564;SDS011;6854;48.096;11.278;2024-03-02T20:40:21;135.30;;;39.87;;
13564;SDS011;6854;48.096;11.278;2024-03-02T20:48:59;122.57;;;36.90;;
13564;SDS011;6854;48.096;11.278;2024-03-02T20:51:48;143.40;;;38.97;;
13564;SDS011;6854;48.096;11.278;2024-03-02T20:54:19;146.80;;;40.90;;
13564;SDS011;6854;48.096;11.278;2024-03-02T20:56:45;166.07;;;42.87;;
13564;SDS011;6854;48.096;11.278;2024-03-02T20:59:23;148.87;;;39.27;;
13564;SDS011;6854;48.096;11.278;2024-03-02T21:01:50;179.00;;;43.90;;
13564;SDS011;6854;48.096;11.278;2024-03-02T21:04:17;161.10;;;42.43;;
13564;SDS011;6854;48.096;11.278;2024-03-02T21:06:45;158.77;;;41.70;;
13564;SDS011;6854;48.096;11.278;2024-03-02T21:09:13;146.27;;;39.40;;
13564;SDS011;6854;48.096;11.278;2024-03-02T21:11:43;163.77;;;41.90;;
13564;SDS011;6854;48.096;11.278;2024-03-02T21:14:46;168.70;;;42.37;;
13564;SDS011;6854;48.096;11.278;2024-03-02T21:17:16;177.40;;;43.00;;
13564;SDS011;6854;48.096;11.278;2024-03-02T21:19:42;172.13;;;42.47;;
13564;SDS011;6854;48.096;11.278;2024-03-02T21:22:11;194.40;;;46.13;;
13564;SDS011;6854;48.096;11.278;2024-03-02T21:24:37;190.50;;;44.70;;
13564;SDS011;6854;48.096;11.278;2024-03-02T21:27:09;192.53;;;48.00;;
13564;SDS011;6854;48.096;11.278;2024-03-02T21:29:37;168.20;;;43.97;;
13564;SDS011;6854;48.096;11.278;2024-03-02T21:32:09;187.83;;;43.73;;
13564;SDS011;6854;48.096;11.278;2024-03-02T21:35:02;175.30;;;42.27;;
13564;SDS011;6854;48.096;11.278;2024-03-02T21:37:29;184.00;;;43.80;;
13564;SDS011;6854;48.096;11.278;2024-03-02T21:40:20;180.90;;;42.97;;
13564;SDS011;6854;48.096;11.278;2024-03-02T21:42:46;198.13;;;42.50;;
13564;SDS011;6854;48.096;11.278;2024-03-02T21:45:20;214.10;;;44.83;;
13564;SDS011;6854;48.096;11.278;2024-03-02T21:47:47;202.23;;;43.80;;
13564;SDS011;6854;48.096;11.278;2024-03-02T21:50:17;204.87;;;45.70;;
13564;SDS011;6854;48.096;11.278;2024-03-02T21:52:44;252.60;;;44.77;;
13564;SDS011;6854;48.096;11.278;2024-03-02T21:55:20;172.83;;;40.77;;
13564;SDS011;6854;48.096;11.278;2024-03-02T21:57:52;118.50;;;31.27;;
13564;SDS011;6854;48.096;11.278;2024-03-02T22:00:19;197.77;;;42.80;;
13564;SDS011;6854;48.096;11.278;2024-03-02T22:02:45;236.37;;;44.97;;
13564;SDS011;6854;48.096;11.278;2024-03-02T22:05:12;198.30;;;42.40;;
13564;SDS011;6854;48.096;11.278;2024-03-02T22:07:40;144.33;;;33.07;;
13564;SDS011;6854;48.096;11.278;2024-03-02T22:10:48;199.47;;;35.60;;
13564;SDS011;6854;48.096;11.278;2024-03-02T22:13:37;162.97;;;36.87;;
13564;SDS011;6854;48.096;11.278;2024-03-02T22:16:04;297.90;;;39.20;;
13564;SDS011;6854;48.096;11.278;2024-03-02T22:18:35;248.90;;;38.17;;
13564;SDS011;6854;48.096;11.278;2024-03-02T22:21:02;198.93;;;37.40;;
13564;SDS011;6854;48.096;11.278;2024-03-02T22:23:28;174.80;;;36.50;;
13564;SDS011;6854;48.096;11.278;2024-03-02T22:25:59;195.83;;;39.50;;
13564;SDS011;6854;48.096;11.278;2024-03-02T22:28:27;209.63;;;39.40;;
13564;SDS011;6854;48.096;11.278;2024-03-02T22:30:56;211.43;;;42.00;;
13564;SDS011;6854;48.096;11.278;2024-03-02T22:33:26;303.27;;;43.77;;
13564;SDS011;6854;48.096;11.278;2024-03-02T22:35:55;231.43;;;43.40;;
13564;SDS011;6854;48.096;11.278;2024-03-02T22:38:22;202.23;;;41.50;;
13564;SDS011;6854;48.096;11.278;2024-03-02T22:40:49;214.73;;;41.50;;
13564;SDS011;6854;48.096;11.278;2024-03-02T22:43:29;264.20;;;36.57;;
13564;SDS011;6854;48.096;11.278;2024-03-02T22:45:57;194.60;;;33.30;;
13564;SDS011;6854;48.096;11.278;2024-03-02T22:48:24;163.00;;;35.80;;
13564;SDS011;6854;48.096;11.278;2024-03-02T22:50:50;175.90;;;37.87;;
13564;SDS011;6854;48.096;11.278;2024-03-02T22:53:20;177.47;;;36.00;;
13564;SDS011;6854;48.096;11.278;2024-03-02T22:56:00;186.77;;;37.53;;
13564;SDS011;6854;48.096;11.278;2024-03-02T22:58:52;183.73;;;36.87;;
13564;SDS011;6854;48.096;11.278;2024-03-02T23:01:18;184.33;;;36.60;;
13564;SDS011;6854;48.096;11.278;2024-03-02T23:03:49;158.70;;;33.10;;
13564;SDS011;6854;48.096;11.278;2024-03-02T23:06:33;151.80;;;35.57;;
13564;SDS011;6854;48.096;11.278;2024-03-02T23:09:05;202.70;;;36.37;;
13564;SDS011;6854;48.096;11.278;2024-03-02T23:11:31;202.20;;;36.10;;
13564;SDS011;6854;48.096;11.278;2024-03-02T23:13:57;168.17;;;36.60;;
13564;SDS011;6854;48.096;11.278;2024-03-02T23:16:23;167.23;;;32.80;;
13564;SDS011;6854;48.096;11.278;2024-03-02T23:18:59;145.60;;;32.13;;
13564;SDS011;6854;48.096;11.278;2024-03-02T23:21:26;178.57;;;36.30;;
13564;SDS011;6854;48.096;11.278;2024-03-02T23:23:53;227.63;;;36.90;;
13564;SDS011;6854;48.096;11.278;2024-03-02T23:26:22;196.60;;;38.90;;
13564;SDS011;6854;48.096;11.278;2024-03-02T23:28:52;164.33;;;32.90;;
13564;SDS011;6854;48.096;11.278;2024-03-02T23:31:33;178.60;;;36.20;;
13564;SDS011;6854;48.096;11.278;2024-03-02T23:33:59;180.03;;;35.90;;
13564;SDS011;6854;48.096;11.278;2024-03-02T23:36:31;185.13;;;36.37;;
13564;SDS011;6854;48.096;11.278;2024-03-02T23:39:00;195.77;;;36.27;;
13564;SDS011;6854;48.096;11.278;2024-03-02T23:44:35;149.87;;;32.97;;
13564;SDS011;6854;48.096;11.278;2024-03-02T23:50:24;184.50;;;34.17;;
13564;SDS011;6854;48.096;11.278;2024-03-02T23:59:24;169.43;;;31.90;;
